createdAt,value
2022-11-13T00:01:20.703Z,1.20
2022-11-13T00:03:48.442Z,1.10
2022-11-13T00:06:17.429Z,1.10
2022-11-13T00:08:44.842Z,1.10
2022-11-13T00:11:15.097Z,1.20
2022-11-13T00:13:43.252Z,1.30
2022-11-13T00:16:13.558Z,1.20
2022-11-13T00:18:41.884Z,1.20
2022-11-13T00:21:16.734Z,1.20
2022-11-13T00:23:44.223Z,1.10
2022-11-13T00:26:22.437Z,1.10
2022-11-13T00:28:57.506Z,1.10
2022-11-13T00:31:25.489Z,1.10
2022-11-13T00:36:40.512Z,1.00
2022-11-13T00:39:07.600Z,1.00
2022-11-13T00:41:34.765Z,1.00
2022-11-13T00:44:04.090Z,0.90
2022-11-13T00:46:31.292Z,0.90
2022-11-13T00:48:58.605Z,0.90
2022-11-13T00:51:25.890Z,0.90
2022-11-13T00:53:53.147Z,1.00
2022-11-13T00:56:20.318Z,1.00
2022-11-13T00:58:47.567Z,1.00
2022-11-13T01:01:17.386Z,1.10
2022-11-13T01:03:45.138Z,1.20
2022-11-13T01:06:21.868Z,1.10
2022-11-13T01:08:49.512Z,1.00
2022-11-13T01:11:22.388Z,0.90
2022-11-13T01:13:51.170Z,1.00
2022-11-13T01:16:21.476Z,0.90
2022-11-13T01:18:49.540Z,0.90
2022-11-13T01:21:22.954Z,0.80
2022-11-13T01:23:50.146Z,0.70
2022-11-13T01:26:24.506Z,0.70
2022-11-13T01:28:52.197Z,0.80
2022-11-13T01:31:23.488Z,0.70
2022-11-13T01:33:50.883Z,0.70
2022-11-13T01:36:21.192Z,0.70
2022-11-13T01:38:49.468Z,0.80
2022-11-13T01:41:23.798Z,0.70
2022-11-13T01:43:52.500Z,0.80
2022-11-13T01:46:28.225Z,0.70
2022-11-13T01:49:16.204Z,0.60
2022-11-13T01:51:48.799Z,0.50
2022-11-13T01:54:19.618Z,0.50
2022-11-13T01:56:47.597Z,0.60
2022-11-13T01:59:19.257Z,0.60
2022-11-13T02:01:46.872Z,0.60
2022-11-13T02:04:14.120Z,0.60
2022-11-13T02:06:48.283Z,0.50
2022-11-13T02:09:18.078Z,0.40
2022-11-13T02:11:45.419Z,0.50
2022-11-13T02:14:14.988Z,0.50
2022-11-13T02:16:45.355Z,0.50
2022-11-13T02:19:40.647Z,0.50
2022-11-13T02:22:29.353Z,0.50
2022-11-13T02:24:59.173Z,0.70
2022-11-13T02:27:55.334Z,0.60
2022-11-13T02:30:28.908Z,0.60
2022-11-13T02:32:57.973Z,0.50
2022-11-13T02:35:32.310Z,0.50
2022-11-13T02:38:02.569Z,0.50
2022-11-13T02:40:30.970Z,0.50
2022-11-13T02:42:58.298Z,0.60
2022-11-13T02:45:25.398Z,0.60
2022-11-13T02:47:52.535Z,0.60
2022-11-13T02:50:19.863Z,0.60
2022-11-13T02:52:47.045Z,0.60
2022-11-13T02:55:14.239Z,0.50
2022-11-13T02:57:41.468Z,0.50
2022-11-13T03:00:13.750Z,0.50
2022-11-13T03:02:41.877Z,0.50
2022-11-13T03:05:12.355Z,0.50
2022-11-13T03:07:40.822Z,0.60
2022-11-13T03:10:09.319Z,0.60
2022-11-13T03:12:37.692Z,0.50
2022-11-13T03:15:06.013Z,0.50
2022-11-13T03:17:33.498Z,0.50
2022-11-13T03:20:00.892Z,0.50
2022-11-13T03:22:28.435Z,0.50
2022-11-13T03:24:55.588Z,0.40
2022-11-13T03:27:23.054Z,0.40
2022-11-13T03:29:50.235Z,0.40
2022-11-13T03:32:17.415Z,0.40
2022-11-13T03:34:44.573Z,0.30
2022-11-13T03:37:11.700Z,0.40
2022-11-13T03:39:38.812Z,0.30
2022-11-13T03:42:06.236Z,0.30
2022-11-13T03:44:33.349Z,0.40
2022-11-13T03:47:00.433Z,0.10
2022-11-13T03:49:27.646Z,0.20
2022-11-13T03:51:54.804Z,0.20
2022-11-13T03:54:22.093Z,0.20
2022-11-13T03:56:49.212Z,0.20
2022-11-13T03:59:16.384Z,0.10
2022-11-13T04:01:43.568Z,0.20
2022-11-13T04:04:10.986Z,0.20
2022-11-13T04:06:38.199Z,0.10
2022-11-13T04:09:05.497Z,0.10
2022-11-13T04:11:32.673Z,0.00
2022-11-13T04:14:00.003Z,0.10
2022-11-13T04:16:27.359Z,0.00
2022-11-13T04:18:55.018Z,0.00
2022-11-13T04:21:22.173Z,0.10
2022-11-13T04:23:49.396Z,0.10
2022-11-13T04:26:16.510Z,0.10
2022-11-13T04:28:43.611Z,0.20
2022-11-13T04:31:10.862Z,0.20
2022-11-13T04:33:37.888Z,0.10
2022-11-13T04:36:05.262Z,0.20
2022-11-13T04:38:32.496Z,0.00
2022-11-13T04:41:35.196Z,0.00
2022-11-13T04:44:02.311Z,0.00
2022-11-13T04:46:29.774Z,0.00
2022-11-13T04:48:56.930Z,0.00
2022-11-13T04:51:24.068Z,0.00
2022-11-13T04:53:51.240Z,0.00
2022-11-13T04:56:18.441Z,-0.10
2022-11-13T04:58:45.596Z,-0.20
2022-11-13T05:01:12.728Z,-0.20
2022-11-13T05:03:40.061Z,-0.20
2022-11-13T05:06:09.495Z,-0.10
2022-11-13T05:08:37.198Z,-0.10
2022-11-13T05:11:04.746Z,-0.10
2022-11-13T05:13:33.981Z,-0.10
2022-11-13T05:16:02.328Z,-0.10
2022-11-13T05:18:30.437Z,-0.20
2022-11-13T05:20:58.101Z,-0.20
2022-11-13T05:23:25.670Z,-0.10
2022-11-13T05:26:00.828Z,-0.10
2022-11-13T05:28:28.212Z,-0.10
2022-11-13T05:31:16.053Z,-0.20
2022-11-13T05:33:43.896Z,-0.30
2022-11-13T05:36:15.952Z,-0.30
2022-11-13T05:38:43.459Z,-0.30
2022-11-13T05:41:19.016Z,-0.30
2022-11-13T05:43:46.726Z,-0.30
2022-11-13T05:46:15.351Z,-0.30
2022-11-13T05:48:43.256Z,-0.40
2022-11-13T05:51:15.959Z,-0.30
2022-11-13T05:53:43.529Z,-0.30
2022-11-13T05:56:14.111Z,-0.40
2022-11-13T05:58:42.384Z,-0.50
2022-11-13T06:01:13.520Z,-0.40
2022-11-13T06:03:40.991Z,-0.60
2022-11-13T06:06:10.228Z,-0.60
2022-11-13T06:08:38.065Z,-0.60
2022-11-13T06:11:08.772Z,-0.50
2022-11-13T06:13:36.489Z,-0.50
2022-11-13T06:16:10.474Z,-0.40
2022-11-13T06:18:39.626Z,-0.40
2022-11-13T06:21:10.456Z,-0.60
2022-11-13T06:23:38.993Z,-0.50
2022-11-13T06:26:12.967Z,-0.50
2022-11-13T06:28:40.843Z,-0.50
2022-11-13T06:31:10.443Z,-0.40
2022-11-13T06:33:39.239Z,-0.50
2022-11-13T06:36:08.768Z,-0.60
2022-11-13T06:38:38.185Z,-0.50
2022-11-13T06:41:06.176Z,-0.40
2022-11-13T06:43:33.730Z,-0.40
2022-11-13T06:46:05.841Z,-0.30
2022-11-13T06:48:33.804Z,-0.30
2022-11-13T06:51:02.833Z,-0.40
2022-11-13T06:53:30.673Z,-0.50
2022-11-13T06:55:58.529Z,-0.40
2022-11-13T06:58:25.937Z,-0.40
2022-11-13T07:00:54.209Z,-0.50
2022-11-13T07:03:25.601Z,-0.40
2022-11-13T07:05:53.071Z,-0.30
2022-11-13T07:08:20.379Z,-0.40
2022-11-13T07:10:55.519Z,-0.50
2022-11-13T07:13:23.776Z,-0.50
2022-11-13T07:15:51.221Z,-0.40
2022-11-13T07:18:23.764Z,-0.50
2022-11-13T07:20:51.388Z,-0.40
2022-11-13T07:23:18.697Z,-0.30
2022-11-13T07:25:46.176Z,-0.30
2022-11-13T07:28:13.447Z,-0.40
2022-11-13T07:30:40.847Z,-0.30
2022-11-13T07:33:08.043Z,-0.20
2022-11-13T07:35:35.268Z,-0.30
2022-11-13T07:38:02.679Z,-0.30
2022-11-13T07:40:30.271Z,-0.40
2022-11-13T07:42:59.489Z,-0.30
2022-11-13T07:45:28.338Z,-0.40
2022-11-13T07:48:02.809Z,-0.40
2022-11-13T07:50:33.822Z,-0.30
2022-11-13T07:53:03.954Z,-0.40
2022-11-13T07:55:34.066Z,-0.30
2022-11-13T07:58:01.869Z,-0.40
2022-11-13T08:00:30.411Z,-0.30
2022-11-13T08:02:58.551Z,-0.30
2022-11-13T08:05:25.909Z,-0.30
2022-11-13T08:07:53.289Z,-0.40
2022-11-13T08:10:21.617Z,-0.30
2022-11-13T08:12:48.964Z,-0.30
2022-11-13T08:15:16.580Z,-0.30
2022-11-13T08:17:44.011Z,-0.40
2022-11-13T08:20:11.856Z,-0.30
2022-11-13T08:22:39.138Z,-0.20
2022-11-13T08:25:07.134Z,-0.10
2022-11-13T08:27:34.628Z,-0.10
2022-11-13T08:30:04.145Z,0.00
2022-11-13T08:32:31.536Z,0.00
2022-11-13T08:34:58.767Z,0.00
2022-11-13T08:37:26.312Z,0.10
2022-11-13T08:39:53.637Z,0.30
2022-11-13T08:42:20.900Z,0.40
2022-11-13T08:44:48.511Z,0.40
2022-11-13T08:47:16.121Z,0.30
2022-11-13T08:49:43.929Z,0.40
2022-11-13T08:52:11.067Z,0.60
2022-11-13T08:54:38.260Z,0.70
2022-11-13T08:57:06.206Z,0.90
2022-11-13T08:59:33.505Z,0.90
2022-11-13T09:02:00.782Z,0.90
2022-11-13T09:04:28.208Z,0.80
2022-11-13T09:06:55.395Z,0.90
2022-11-13T09:09:23.595Z,1.00
2022-11-13T09:11:50.862Z,0.90
2022-11-13T09:14:18.057Z,0.80
2022-11-13T09:16:45.213Z,0.80
2022-11-13T09:19:12.464Z,0.80
2022-11-13T09:21:39.673Z,0.80
2022-11-13T09:24:07.278Z,0.80
2022-11-13T09:26:35.820Z,0.70
2022-11-13T09:29:03.046Z,0.60
2022-11-13T09:31:30.376Z,0.70
2022-11-13T09:33:57.701Z,0.80
2022-11-13T09:36:24.881Z,0.80
2022-11-13T09:38:52.044Z,0.70
2022-11-13T09:41:27.186Z,0.70
2022-11-13T09:44:07.044Z,0.90
2022-11-13T09:46:34.288Z,0.90
2022-11-13T09:49:08.184Z,0.80
2022-11-13T09:51:38.169Z,0.70
2022-11-13T09:54:14.518Z,0.80
2022-11-13T09:56:45.305Z,0.80
2022-11-13T09:59:35.425Z,0.90
2022-11-13T10:02:21.973Z,1.10
2022-11-13T10:04:58.527Z,1.40
2022-11-13T10:07:56.984Z,1.50
2022-11-13T10:10:55.214Z,1.50
2022-11-13T10:13:47.559Z,1.60
2022-11-13T10:16:18.944Z,1.50
2022-11-13T10:18:48.678Z,1.60
2022-11-13T10:21:34.524Z,1.70
2022-11-13T10:24:08.317Z,1.90
2022-11-13T10:26:39.434Z,1.90
2022-11-13T10:29:16.087Z,1.90
2022-11-13T10:31:49.357Z,2.00
2022-11-13T10:34:18.081Z,2.10
2022-11-13T10:36:57.314Z,2.20
2022-11-13T10:39:24.694Z,2.50
2022-11-13T10:41:54.278Z,2.70
2022-11-13T10:44:23.217Z,2.80
2022-11-13T10:46:50.724Z,2.90
2022-11-13T10:49:30.925Z,3.00
2022-11-13T10:52:01.264Z,3.10
2022-11-13T10:54:31.184Z,3.10
2022-11-13T10:57:01.120Z,3.10
2022-11-13T10:59:42.644Z,3.20
2022-11-13T11:02:21.447Z,3.30
2022-11-13T11:04:48.957Z,3.30
2022-11-13T11:07:24.600Z,3.40
2022-11-13T11:09:52.327Z,3.50
2022-11-13T11:12:30.675Z,3.60
2022-11-13T11:15:05.034Z,3.70
2022-11-13T11:17:34.746Z,3.70
2022-11-13T11:20:15.641Z,3.90
2022-11-13T11:22:45.650Z,3.90
2022-11-13T11:25:44.112Z,4.00
2022-11-13T11:28:29.499Z,4.00
2022-11-13T11:31:09.729Z,4.10
2022-11-13T11:34:00.913Z,4.30
2022-11-13T11:36:36.097Z,4.40
2022-11-13T11:39:26.781Z,4.50
2022-11-13T11:42:01.903Z,4.50
2022-11-13T11:44:59.074Z,4.50
2022-11-13T11:47:26.369Z,4.50
2022-11-13T11:49:54.782Z,4.60
2022-11-13T11:52:33.314Z,4.60
2022-11-13T11:55:07.863Z,4.60
2022-11-13T11:57:41.031Z,4.60
2022-11-13T12:00:18.244Z,4.70
2022-11-13T12:03:30.088Z,4.70
2022-11-13T12:06:16.691Z,4.80
2022-11-13T12:08:44.155Z,4.90
2022-11-13T12:11:34.712Z,5.00
2022-11-13T12:14:23.373Z,5.10
2022-11-13T12:16:50.546Z,5.20
2022-11-13T12:19:48.953Z,5.10
2022-11-13T12:22:31.233Z,5.10
2022-11-13T12:25:14.130Z,5.10
2022-11-13T12:27:54.048Z,5.10
2022-11-13T12:30:25.088Z,5.20
2022-11-13T12:33:03.956Z,5.30
2022-11-13T12:35:31.396Z,5.30
2022-11-13T12:38:01.900Z,5.30
2022-11-13T12:40:56.438Z,5.30
2022-11-13T12:43:26.584Z,5.20
2022-11-13T12:46:08.313Z,5.20
2022-11-13T12:48:44.950Z,5.30
2022-11-13T12:51:18.027Z,5.40
2022-11-13T12:53:52.145Z,5.40
2022-11-13T12:56:24.993Z,5.30
2022-11-13T12:59:28.712Z,5.20
2022-11-13T13:01:54.920Z,5.20
2022-11-13T13:04:34.043Z,5.10
2022-11-13T13:07:29.107Z,5.10
2022-11-13T13:10:18.179Z,5.00
2022-11-13T13:13:22.604Z,5.00
2022-11-13T13:16:00.177Z,5.00
2022-11-13T13:18:29.834Z,5.00
2022-11-13T13:20:57.694Z,5.00
2022-11-13T13:23:33.576Z,5.00
2022-11-13T13:26:28.917Z,5.00
2022-11-13T13:29:01.995Z,4.90
2022-11-13T13:32:20.632Z,4.90
2022-11-13T13:35:11.115Z,4.80
2022-11-13T13:37:48.967Z,4.60
2022-11-13T13:40:22.969Z,4.60
2022-11-13T13:43:21.513Z,4.50
2022-11-13T13:46:10.334Z,4.40
2022-11-13T13:48:40.604Z,4.40
2022-11-13T13:51:34.214Z,4.30
2022-11-13T13:54:05.892Z,4.30
2022-11-13T13:56:34.600Z,4.10
2022-11-13T13:59:02.657Z,4.00
2022-11-13T14:01:33.073Z,4.00
2022-11-13T14:04:22.011Z,3.90
2022-11-13T14:06:54.629Z,3.90
2022-11-13T14:09:24.975Z,3.70
2022-11-13T14:12:09.044Z,3.60
2022-11-13T14:14:39.684Z,3.50
2022-11-13T14:17:09.418Z,3.40
2022-11-13T14:19:37.129Z,3.30
2022-11-13T14:22:08.574Z,3.10
2022-11-13T14:24:51.467Z,3.00
2022-11-13T14:27:25.677Z,3.00
2022-11-13T14:30:02.067Z,3.00
2022-11-13T14:32:41.901Z,2.90
2022-11-13T14:35:23.871Z,2.90
2022-11-13T14:37:53.030Z,2.70
2022-11-13T14:40:34.192Z,2.60
2022-11-13T14:43:10.620Z,2.40
2022-11-13T14:45:52.810Z,2.40
2022-11-13T14:48:23.452Z,2.40
2022-11-13T14:51:02.589Z,2.30
2022-11-13T14:53:35.422Z,2.20
2022-11-13T14:56:10.953Z,2.10
2022-11-13T14:58:47.770Z,2.10
2022-11-13T15:01:23.593Z,2.10
2022-11-13T15:03:52.334Z,2.00
2022-11-13T15:06:22.542Z,1.80
2022-11-13T15:08:54.499Z,1.90
2022-11-13T15:11:23.650Z,1.90
2022-11-13T15:13:50.908Z,1.80
2022-11-13T15:16:29.531Z,1.80
2022-11-13T15:18:59.948Z,1.70
2022-11-13T15:21:27.582Z,1.70
2022-11-13T15:23:55.055Z,1.70
2022-11-13T15:26:22.340Z,1.70
2022-11-13T15:28:49.913Z,1.70
2022-11-13T15:31:24.344Z,1.50
2022-11-13T15:33:51.591Z,1.40
2022-11-13T15:36:18.815Z,1.30
2022-11-13T15:38:46.149Z,1.30
2022-11-13T15:41:18.952Z,1.30
2022-11-13T15:43:51.412Z,1.20
2022-11-13T15:46:20.737Z,1.20
2022-11-13T15:48:49.295Z,1.10
2022-11-13T15:51:35.043Z,1.10
2022-11-13T15:54:14.464Z,1.10
2022-11-13T15:56:42.670Z,1.10
2022-11-13T15:59:14.153Z,1.00
2022-11-13T16:01:42.377Z,0.90
2022-11-13T16:04:13.145Z,0.90
2022-11-13T16:06:41.517Z,0.90
2022-11-13T16:09:13.885Z,0.80
2022-11-13T16:11:42.063Z,0.80
2022-11-13T16:14:09.467Z,0.80
2022-11-13T16:16:41.885Z,0.70
2022-11-13T16:19:14.012Z,0.80
2022-11-13T16:21:41.725Z,0.80
2022-11-13T16:24:11.733Z,0.80
2022-11-13T16:26:39.540Z,0.80
2022-11-13T16:29:22.060Z,0.80
2022-11-13T16:31:49.316Z,0.80
2022-11-13T16:34:16.696Z,0.90
2022-11-13T16:36:44.057Z,1.00
2022-11-13T16:39:16.324Z,1.10
2022-11-13T16:41:44.084Z,1.10
2022-11-13T16:44:11.414Z,1.10
2022-11-13T16:46:44.834Z,1.20
2022-11-13T16:49:20.341Z,1.20
2022-11-13T16:51:47.635Z,1.30
2022-11-13T16:54:15.161Z,1.30
2022-11-13T16:56:42.373Z,1.50
2022-11-13T16:59:11.160Z,1.60
2022-11-13T17:01:38.599Z,1.50
2022-11-13T17:04:06.077Z,1.40
2022-11-13T17:06:36.523Z,1.30
2022-11-13T17:09:04.929Z,1.40
2022-11-13T17:11:33.138Z,1.40
2022-11-13T17:14:02.133Z,1.20
2022-11-13T17:16:31.357Z,1.10
2022-11-13T17:18:59.956Z,1.10
2022-11-13T17:21:29.955Z,0.90
2022-11-13T17:24:02.413Z,0.90
2022-11-13T17:26:31.715Z,0.90
2022-11-13T17:29:02.573Z,0.90
2022-11-13T17:31:30.209Z,0.90
2022-11-13T17:33:57.751Z,0.80
2022-11-13T17:36:25.624Z,0.70
2022-11-13T17:38:54.681Z,0.70
2022-11-13T17:41:23.196Z,0.70
2022-11-13T17:43:51.092Z,0.50
2022-11-13T17:46:19.655Z,0.50
2022-11-13T17:48:48.832Z,0.40
2022-11-13T17:51:20.170Z,0.40
2022-11-13T17:53:47.747Z,0.40
2022-11-13T17:56:15.810Z,0.40
2022-11-13T17:58:44.822Z,0.40
2022-11-13T18:01:20.974Z,0.40
2022-11-13T18:03:54.237Z,0.30
2022-11-13T18:06:22.320Z,0.30
2022-11-13T18:08:49.786Z,0.40
2022-11-13T18:11:23.229Z,0.30
2022-11-13T18:13:51.742Z,0.20
2022-11-13T18:16:26.217Z,0.10
2022-11-13T18:18:56.739Z,0.10
2022-11-13T18:21:35.370Z,0.10
2022-11-13T18:24:13.477Z,0.10
2022-11-13T18:26:41.346Z,0.10
2022-11-13T18:29:09.155Z,0.20
2022-11-13T18:31:36.788Z,0.10
2022-11-13T18:34:08.936Z,0.10
2022-11-13T18:36:36.184Z,0.20
2022-11-13T18:39:06.702Z,0.30
2022-11-13T18:41:35.886Z,0.30
2022-11-13T18:44:03.733Z,0.30
2022-11-13T18:46:34.290Z,0.30
2022-11-13T18:49:07.049Z,0.30
2022-11-13T18:51:35.817Z,0.40
2022-11-13T18:54:09.703Z,0.40
2022-11-13T18:56:42.708Z,0.50
2022-11-13T18:59:11.397Z,0.50
2022-11-13T19:01:40.292Z,0.50
2022-11-13T19:04:25.266Z,0.60
2022-11-13T19:06:52.787Z,0.70
2022-11-13T19:09:21.091Z,0.70
2022-11-13T19:11:50.354Z,0.60
2022-11-13T19:14:19.172Z,0.60
2022-11-13T19:16:47.072Z,0.60
2022-11-13T19:19:17.758Z,0.60
2022-11-13T19:21:46.355Z,0.60
2022-11-13T19:24:20.788Z,0.50
2022-11-13T19:26:50.267Z,0.50
2022-11-13T19:29:17.581Z,0.40
2022-11-13T19:31:47.187Z,0.40
2022-11-13T19:34:14.703Z,0.40
2022-11-13T19:36:45.219Z,0.30
2022-11-13T19:39:12.713Z,0.30
2022-11-13T19:41:40.239Z,0.30
2022-11-13T19:44:09.947Z,0.30
2022-11-13T19:46:37.365Z,0.30
2022-11-13T19:49:04.979Z,0.30
2022-11-13T19:51:32.322Z,0.20
2022-11-13T19:54:01.154Z,0.20
2022-11-13T19:56:29.074Z,0.40
2022-11-13T19:58:56.841Z,0.40
2022-11-13T20:01:26.906Z,0.40
2022-11-13T20:03:56.101Z,0.40
2022-11-13T20:06:23.766Z,0.40
2022-11-13T20:08:51.894Z,0.30
2022-11-13T20:11:19.359Z,0.30
2022-11-13T20:13:46.984Z,0.40
2022-11-13T20:16:16.811Z,0.30
2022-11-13T20:18:45.029Z,0.30
2022-11-13T20:21:12.505Z,0.30
2022-11-13T20:23:40.557Z,0.20
2022-11-13T20:26:12.039Z,0.20
2022-11-13T20:28:39.645Z,0.20
2022-11-13T20:31:12.975Z,0.10
2022-11-13T20:33:43.709Z,0.00
2022-11-13T20:36:13.160Z,0.00
2022-11-13T20:38:46.921Z,0.00
2022-11-13T20:41:14.324Z,0.00
2022-11-13T20:43:42.454Z,0.10
2022-11-13T20:46:13.530Z,0.00
2022-11-13T20:48:42.396Z,0.00
2022-11-13T20:51:14.772Z,-0.10
2022-11-13T20:53:44.266Z,-0.10
2022-11-13T20:56:12.419Z,0.00
2022-11-13T20:58:40.524Z,0.00
2022-11-13T21:01:12.878Z,-0.10
2022-11-13T21:03:42.334Z,0.00
2022-11-13T21:06:11.730Z,0.00
2022-11-13T21:08:39.464Z,0.10
2022-11-13T21:11:08.203Z,0.10
2022-11-13T21:13:35.728Z,0.20
2022-11-13T21:16:10.180Z,0.20
2022-11-13T21:18:37.834Z,0.30
2022-11-13T21:21:08.553Z,0.30
2022-11-13T21:23:36.193Z,0.40
2022-11-13T21:26:05.607Z,0.50
2022-11-13T21:28:34.116Z,0.50
2022-11-13T21:31:15.209Z,0.70
2022-11-13T21:33:43.902Z,0.80
2022-11-13T21:36:17.172Z,0.90
2022-11-13T21:38:44.930Z,1.00
2022-11-13T21:41:23.606Z,1.10
2022-11-13T21:44:06.061Z,1.20
2022-11-13T21:46:36.405Z,1.40
2022-11-13T21:49:11.833Z,1.30
2022-11-13T21:51:41.530Z,1.30
2022-11-13T21:54:09.310Z,1.30
2022-11-13T21:56:38.836Z,1.30
2022-11-13T21:59:07.075Z,1.30
2022-11-13T22:01:38.612Z,1.30
2022-11-13T22:04:06.763Z,1.40
2022-11-13T22:06:39.860Z,1.50
2022-11-13T22:09:17.586Z,1.60
2022-11-13T22:11:45.172Z,1.60
2022-11-13T22:14:12.778Z,1.50
2022-11-13T22:16:42.444Z,1.50
2022-11-13T22:19:15.785Z,1.60
2022-11-13T22:21:43.638Z,1.70
2022-11-13T22:24:12.121Z,1.70
2022-11-13T22:26:48.584Z,1.80
2022-11-13T22:29:15.910Z,1.70
2022-11-13T22:31:45.044Z,1.70
2022-11-13T22:34:12.310Z,1.60
2022-11-13T22:36:39.440Z,1.70
2022-11-13T22:39:07.064Z,1.70
2022-11-13T22:41:35.712Z,1.70
2022-11-13T22:44:06.799Z,1.80
2022-11-13T22:46:36.089Z,1.80
2022-11-13T22:49:05.553Z,1.80
2022-11-13T22:51:38.824Z,1.80
2022-11-13T22:54:08.951Z,1.80
2022-11-13T22:56:37.552Z,1.80
2022-11-13T22:59:06.441Z,1.80
2022-11-13T23:01:35.769Z,1.80
2022-11-13T23:04:05.798Z,1.80
2022-11-13T23:06:34.950Z,1.80
2022-11-13T23:09:02.963Z,1.90
2022-11-13T23:11:39.863Z,2.00
2022-11-13T23:14:12.954Z,1.90
2022-11-13T23:16:40.158Z,2.00
2022-11-13T23:19:07.770Z,1.90
2022-11-13T23:21:34.892Z,1.90
2022-11-13T23:24:02.291Z,1.90
2022-11-13T23:26:29.853Z,1.90
2022-11-13T23:28:57.363Z,2.00
2022-11-13T23:31:24.822Z,2.10
2022-11-13T23:33:52.012Z,2.20
2022-11-13T23:36:19.476Z,2.20
2022-11-13T23:38:47.057Z,2.20
2022-11-13T23:41:14.538Z,2.20
2022-11-13T23:46:28.968Z,2.30
2022-11-13T23:48:56.676Z,2.30
2022-11-13T23:51:23.788Z,2.30
2022-11-13T23:53:51.071Z,2.30
2022-11-13T23:56:18.373Z,2.40
2022-11-13T23:58:45.665Z,2.60
